sensor_id;sensor_type;location;lat;lon;timestamp;P1;durP1;ratioP1;P2;durP2;ratioP2
58637;SDS011;54976;51.510;7.522;2023-09-19T00:01:08;7.10;;;1.77;;
58637;SDS011;54976;51.510;7.522;2023-09-19T00:04:09;7.88;;;2.08;;
58637;SDS011;54976;51.510;7.522;2023-09-19T00:07:10;13.85;;;2.40;;
58637;SDS011;54976;51.510;7.522;2023-09-19T00:10:10;7.75;;;1.83;;
58637;SDS011;54976;51.510;7.522;2023-09-19T00:13:11;5.82;;;2.25;;
58637;SDS011;54976;51.510;7.522;2023-09-19T00:16:13;8.25;;;1.95;;
58637;SDS011;54976;51.510;7.522;2023-09-19T00:19:15;7.85;;;1.70;;
58637;SDS011;54976;51.510;7.522;2023-09-19T00:22:16;8.02;;;1.98;;
58637;SDS011;54976;51.510;7.522;2023-09-19T00:25:19;8.80;;;2.03;;
58637;SDS011;54976;51.510;7.522;2023-09-19T00:28:20;8.23;;;1.83;;
58637;SDS011;54976;51.510;7.522;2023-09-19T00:31:21;6.90;;;1.60;;
58637;SDS011;54976;51.510;7.522;2023-09-19T00:34:25;10.82;;;2.72;;
58637;SDS011;54976;51.510;7.522;2023-09-19T00:37:26;7.35;;;2.55;;
58637;SDS011;54976;51.510;7.522;2023-09-19T00:40:26;10.05;;;2.05;;
58637;SDS011;54976;51.510;7.522;2023-09-19T00:43:27;7.88;;;2.10;;
58637;SDS011;54976;51.510;7.522;2023-09-19T00:46:27;8.10;;;1.80;;
58637;SDS011;54976;51.510;7.522;2023-09-19T00:49:28;8.88;;;1.73;;
58637;SDS011;54976;51.510;7.522;2023-09-19T00:52:30;7.80;;;1.98;;
58637;SDS011;54976;51.510;7.522;2023-09-19T00:55:32;8.75;;;2.28;;
58637;SDS011;54976;51.510;7.522;2023-09-19T00:58:33;9.52;;;2.75;;
58637;SDS011;54976;51.510;7.522;2023-09-19T01:01:37;13.17;;;2.40;;
58637;SDS011;54976;51.510;7.522;2023-09-19T01:04:40;12.25;;;2.25;;
58637;SDS011;54976;51.510;7.522;2023-09-19T01:07:41;13.55;;;2.00;;
58637;SDS011;54976;51.510;7.522;2023-09-19T01:10:49;12.73;;;2.22;;
58637;SDS011;54976;51.510;7.522;2023-09-19T01:13:56;14.25;;;2.55;;
58637;SDS011;54976;51.510;7.522;2023-09-19T01:17:05;14.40;;;1.98;;
58637;SDS011;54976;51.510;7.522;2023-09-19T01:20:37;12.60;;;1.95;;
58637;SDS011;54976;51.510;7.522;2023-09-19T01:30:26;10.93;;;2.20;;
58637;SDS011;54976;51.510;7.522;2023-09-19T01:33:53;15.27;;;1.73;;
58637;SDS011;54976;51.510;7.522;2023-09-19T01:36:57;11.35;;;2.05;;
58637;SDS011;54976;51.510;7.522;2023-09-19T01:39:58;14.93;;;2.05;;
58637;SDS011;54976;51.510;7.522;2023-09-19T01:43:21;11.35;;;2.17;;
58637;SDS011;54976;51.510;7.522;2023-09-19T01:46:32;12.85;;;1.67;;
58637;SDS011;54976;51.510;7.522;2023-09-19T01:49:42;13.48;;;2.00;;
58637;SDS011;54976;51.510;7.522;2023-09-19T01:53:01;18.98;;;2.47;;
58637;SDS011;54976;51.510;7.522;2023-09-19T01:56:05;14.47;;;1.80;;
58637;SDS011;54976;51.510;7.522;2023-09-19T01:59:14;11.27;;;1.85;;
58637;SDS011;54976;51.510;7.522;2023-09-19T02:02:19;15.18;;;1.75;;
58637;SDS011;54976;51.510;7.522;2023-09-19T02:05:23;16.07;;;2.70;;
58637;SDS011;54976;51.510;7.522;2023-09-19T02:08:27;19.83;;;1.80;;
58637;SDS011;54976;51.510;7.522;2023-09-19T02:11:29;16.75;;;2.10;;
58637;SDS011;54976;51.510;7.522;2023-09-19T02:14:30;10.90;;;1.80;;
58637;SDS011;54976;51.510;7.522;2023-09-19T02:17:30;8.93;;;1.67;;
58637;SDS011;54976;51.510;7.522;2023-09-19T02:20:31;8.25;;;2.03;;
58637;SDS011;54976;51.510;7.522;2023-09-19T02:23:33;11.70;;;1.73;;
58637;SDS011;54976;51.510;7.522;2023-09-19T02:26:34;16.58;;;2.10;;
58637;SDS011;54976;51.510;7.522;2023-09-19T02:29:35;14.63;;;2.13;;
58637;SDS011;54976;51.510;7.522;2023-09-19T02:32:36;15.63;;;2.22;;
58637;SDS011;54976;51.510;7.522;2023-09-19T02:35:38;10.80;;;1.77;;
58637;SDS011;54976;51.510;7.522;2023-09-19T02:38:39;9.88;;;1.95;;
58637;SDS011;54976;51.510;7.522;2023-09-19T02:41:39;6.95;;;1.83;;
58637;SDS011;54976;51.510;7.522;2023-09-19T02:44:41;10.25;;;2.08;;
58637;SDS011;54976;51.510;7.522;2023-09-19T02:47:42;14.23;;;1.95;;
58637;SDS011;54976;51.510;7.522;2023-09-19T02:50:43;12.85;;;1.80;;
58637;SDS011;54976;51.510;7.522;2023-09-19T02:53:44;9.60;;;1.95;;
58637;SDS011;54976;51.510;7.522;2023-09-19T02:56:47;11.30;;;1.85;;
58637;SDS011;54976;51.510;7.522;2023-09-19T02:59:48;10.05;;;1.88;;
58637;SDS011;54976;51.510;7.522;2023-09-19T03:02:49;15.15;;;2.28;;
58637;SDS011;54976;51.510;7.522;2023-09-19T03:05:50;12.25;;;2.20;;
58637;SDS011;54976;51.510;7.522;2023-09-19T03:08:51;11.18;;;2.33;;
58637;SDS011;54976;51.510;7.522;2023-09-19T03:11:52;10.18;;;2.15;;
58637;SDS011;54976;51.510;7.522;2023-09-19T03:14:52;14.10;;;2.10;;
58637;SDS011;54976;51.510;7.522;2023-09-19T03:17:53;14.95;;;2.30;;
58637;SDS011;54976;51.510;7.522;2023-09-19T03:20:54;14.68;;;2.08;;
58637;SDS011;54976;51.510;7.522;2023-09-19T03:23:56;13.48;;;2.05;;
58637;SDS011;54976;51.510;7.522;2023-09-19T03:26:56;11.02;;;1.60;;
58637;SDS011;54976;51.510;7.522;2023-09-19T03:29:57;13.13;;;2.05;;
58637;SDS011;54976;51.510;7.522;2023-09-19T03:32:58;9.88;;;1.70;;
58637;SDS011;54976;51.510;7.522;2023-09-19T03:35:58;12.40;;;2.25;;
58637;SDS011;54976;51.510;7.522;2023-09-19T03:39:01;13.63;;;2.15;;
58637;SDS011;54976;51.510;7.522;2023-09-19T03:42:05;11.07;;;2.03;;
58637;SDS011;54976;51.510;7.522;2023-09-19T03:45:07;10.20;;;1.83;;
58637;SDS011;54976;51.510;7.522;2023-09-19T03:48:12;16.40;;;2.05;;
58637;SDS011;54976;51.510;7.522;2023-09-19T03:51:13;12.27;;;2.38;;
58637;SDS011;54976;51.510;7.522;2023-09-19T03:54:13;17.05;;;2.33;;
58637;SDS011;54976;51.510;7.522;2023-09-19T03:57:14;11.00;;;2.10;;
58637;SDS011;54976;51.510;7.522;2023-09-19T04:00:17;16.33;;;2.25;;
58637;SDS011;54976;51.510;7.522;2023-09-19T04:03:21;8.57;;;2.00;;
58637;SDS011;54976;51.510;7.522;2023-09-19T04:06:21;7.35;;;1.70;;
58637;SDS011;54976;51.510;7.522;2023-09-19T04:09:22;7.07;;;1.70;;
58637;SDS011;54976;51.510;7.522;2023-09-19T04:12:22;9.95;;;1.63;;
58637;SDS011;54976;51.510;7.522;2023-09-19T04:15:23;14.43;;;2.25;;
58637;SDS011;54976;51.510;7.522;2023-09-19T04:18:24;19.38;;;2.03;;
58637;SDS011;54976;51.510;7.522;2023-09-19T04:21:25;10.40;;;1.80;;
58637;SDS011;54976;51.510;7.522;2023-09-19T04:24:26;10.75;;;2.05;;
58637;SDS011;54976;51.510;7.522;2023-09-19T04:27:27;17.20;;;1.88;;
58637;SDS011;54976;51.510;7.522;2023-09-19T04:30:28;11.05;;;1.90;;
58637;SDS011;54976;51.510;7.522;2023-09-19T04:33:28;10.80;;;2.00;;
58637;SDS011;54976;51.510;7.522;2023-09-19T04:36:29;15.00;;;1.77;;
58637;SDS011;54976;51.510;7.522;2023-09-19T04:39:30;11.57;;;2.28;;
58637;SDS011;54976;51.510;7.522;2023-09-19T04:42:30;10.15;;;1.90;;
58637;SDS011;54976;51.510;7.522;2023-09-19T04:45:31;9.50;;;1.95;;
58637;SDS011;54976;51.510;7.522;2023-09-19T04:48:32;10.55;;;2.50;;
58637;SDS011;54976;51.510;7.522;2023-09-19T04:51:34;17.70;;;2.10;;
58637;SDS011;54976;51.510;7.522;2023-09-19T04:54:36;12.90;;;2.08;;
58637;SDS011;54976;51.510;7.522;2023-09-19T04:57:36;11.07;;;1.80;;
58637;SDS011;54976;51.510;7.522;2023-09-19T05:00:37;10.98;;;2.00;;
58637;SDS011;54976;51.510;7.522;2023-09-19T05:03:37;7.30;;;1.75;;
58637;SDS011;54976;51.510;7.522;2023-09-19T05:06:38;16.63;;;2.15;;
58637;SDS011;54976;51.510;7.522;2023-09-19T05:09:39;12.02;;;2.05;;
58637;SDS011;54976;51.510;7.522;2023-09-19T05:12:42;9.30;;;1.90;;
58637;SDS011;54976;51.510;7.522;2023-09-19T05:15:45;12.10;;;2.00;;
58637;SDS011;54976;51.510;7.522;2023-09-19T05:18:45;15.95;;;2.25;;
58637;SDS011;54976;51.510;7.522;2023-09-19T05:21:46;10.88;;;2.17;;
58637;SDS011;54976;51.510;7.522;2023-09-19T05:24:47;10.00;;;1.73;;
58637;SDS011;54976;51.510;7.522;2023-09-19T05:27:48;13.45;;;2.22;;
58637;SDS011;54976;51.510;7.522;2023-09-19T05:30:48;8.82;;;1.58;;
58637;SDS011;54976;51.510;7.522;2023-09-19T05:33:49;11.30;;;1.88;;
58637;SDS011;54976;51.510;7.522;2023-09-19T05:36:50;13.32;;;2.15;;
58637;SDS011;54976;51.510;7.522;2023-09-19T05:39:52;11.63;;;2.30;;
58637;SDS011;54976;51.510;7.522;2023-09-19T05:42:53;13.45;;;2.10;;
58637;SDS011;54976;51.510;7.522;2023-09-19T05:45:54;12.65;;;2.40;;
58637;SDS011;54976;51.510;7.522;2023-09-19T05:48:56;13.80;;;2.42;;
58637;SDS011;54976;51.510;7.522;2023-09-19T05:51:57;11.88;;;2.15;;
58637;SDS011;54976;51.510;7.522;2023-09-19T05:54:59;9.63;;;2.03;;
58637;SDS011;54976;51.510;7.522;2023-09-19T05:57:59;13.18;;;2.05;;
58637;SDS011;54976;51.510;7.522;2023-09-19T06:01:00;5.80;;;1.92;;
58637;SDS011;54976;51.510;7.522;2023-09-19T06:04:01;14.73;;;2.20;;
58637;SDS011;54976;51.510;7.522;2023-09-19T06:07:02;13.77;;;2.28;;
58637;SDS011;54976;51.510;7.522;2023-09-19T06:10:03;10.27;;;2.20;;
58637;SDS011;54976;51.510;7.522;2023-09-19T06:13:05;21.08;;;2.00;;
58637;SDS011;54976;51.510;7.522;2023-09-19T06:16:09;12.80;;;2.08;;
58637;SDS011;54976;51.510;7.522;2023-09-19T06:19:10;13.00;;;2.13;;
58637;SDS011;54976;51.510;7.522;2023-09-19T06:22:10;18.27;;;2.10;;
58637;SDS011;54976;51.510;7.522;2023-09-19T06:25:12;14.70;;;2.58;;
58637;SDS011;54976;51.510;7.522;2023-09-19T06:28:19;9.55;;;1.90;;
58637;SDS011;54976;51.510;7.522;2023-09-19T06:34:26;11.80;;;1.90;;
58637;SDS011;54976;51.510;7.522;2023-09-19T06:37:30;12.63;;;2.35;;
58637;SDS011;54976;51.510;7.522;2023-09-19T06:40:30;10.88;;;2.20;;
58637;SDS011;54976;51.510;7.522;2023-09-19T06:43:31;12.55;;;2.45;;
58637;SDS011;54976;51.510;7.522;2023-09-19T06:46:33;17.17;;;2.20;;
58637;SDS011;54976;51.510;7.522;2023-09-19T06:49:35;10.38;;;2.08;;
58637;SDS011;54976;51.510;7.522;2023-09-19T06:52:36;16.45;;;2.33;;
58637;SDS011;54976;51.510;7.522;2023-09-19T06:55:37;16.83;;;1.88;;
58637;SDS011;54976;51.510;7.522;2023-09-19T06:58:38;16.60;;;2.33;;
58637;SDS011;54976;51.510;7.522;2023-09-19T07:01:38;8.52;;;1.88;;
58637;SDS011;54976;51.510;7.522;2023-09-19T07:04:39;11.23;;;2.47;;
58637;SDS011;54976;51.510;7.522;2023-09-19T07:07:40;11.77;;;2.22;;
58637;SDS011;54976;51.510;7.522;2023-09-19T07:10:41;13.13;;;2.95;;
58637;SDS011;54976;51.510;7.522;2023-09-19T07:13:48;12.02;;;2.00;;
58637;SDS011;54976;51.510;7.522;2023-09-19T07:16:48;12.38;;;2.10;;
58637;SDS011;54976;51.510;7.522;2023-09-19T07:19:49;11.45;;;2.10;;
58637;SDS011;54976;51.510;7.522;2023-09-19T07:22:50;15.57;;;2.40;;
58637;SDS011;54976;51.510;7.522;2023-09-19T07:25:51;11.18;;;2.22;;
58637;SDS011;54976;51.510;7.522;2023-09-19T07:28:51;11.13;;;1.90;;
58637;SDS011;54976;51.510;7.522;2023-09-19T07:31:53;17.42;;;2.30;;
58637;SDS011;54976;51.510;7.522;2023-09-19T07:34:53;13.25;;;2.15;;
58637;SDS011;54976;51.510;7.522;2023-09-19T07:37:55;14.40;;;2.35;;
58637;SDS011;54976;51.510;7.522;2023-09-19T07:40:59;14.00;;;2.15;;
58637;SDS011;54976;51.510;7.522;2023-09-19T07:44:00;11.90;;;2.25;;
58637;SDS011;54976;51.510;7.522;2023-09-19T07:47:01;11.02;;;2.20;;
58637;SDS011;54976;51.510;7.522;2023-09-19T07:50:03;14.65;;;2.38;;
58637;SDS011;54976;51.510;7.522;2023-09-19T07:53:04;14.98;;;2.55;;
58637;SDS011;54976;51.510;7.522;2023-09-19T07:56:05;16.27;;;2.33;;
58637;SDS011;54976;51.510;7.522;2023-09-19T07:59:06;11.73;;;2.25;;
58637;SDS011;54976;51.510;7.522;2023-09-19T08:02:08;9.00;;;2.20;;
58637;SDS011;54976;51.510;7.522;2023-09-19T08:05:15;12.43;;;2.55;;
58637;SDS011;54976;51.510;7.522;2023-09-19T08:08:16;9.82;;;2.03;;
58637;SDS011;54976;51.510;7.522;2023-09-19T08:11:16;15.77;;;2.72;;
58637;SDS011;54976;51.510;7.522;2023-09-19T08:14:21;13.50;;;2.40;;
58637;SDS011;54976;51.510;7.522;2023-09-19T08:17:24;14.75;;;2.05;;
58637;SDS011;54976;51.510;7.522;2023-09-19T08:20:26;20.65;;;2.28;;
58637;SDS011;54976;51.510;7.522;2023-09-19T08:23:27;13.98;;;1.98;;
58637;SDS011;54976;51.510;7.522;2023-09-19T08:26:29;15.43;;;2.40;;
58637;SDS011;54976;51.510;7.522;2023-09-19T08:29:29;10.18;;;3.30;;
58637;SDS011;54976;51.510;7.522;2023-09-19T08:32:30;14.07;;;2.25;;
58637;SDS011;54976;51.510;7.522;2023-09-19T08:35:31;13.20;;;2.17;;
58637;SDS011;54976;51.510;7.522;2023-09-19T08:38:32;11.73;;;2.13;;
58637;SDS011;54976;51.510;7.522;2023-09-19T08:41:34;11.20;;;2.80;;
58637;SDS011;54976;51.510;7.522;2023-09-19T08:44:36;7.97;;;2.25;;
58637;SDS011;54976;51.510;7.522;2023-09-19T08:47:43;13.82;;;2.00;;
58637;SDS011;54976;51.510;7.522;2023-09-19T08:50:49;10.73;;;2.28;;
58637;SDS011;54976;51.510;7.522;2023-09-19T08:57:08;15.30;;;2.63;;
58637;SDS011;54976;51.510;7.522;2023-09-19T09:00:11;11.88;;;2.33;;
58637;SDS011;54976;51.510;7.522;2023-09-19T09:03:14;7.57;;;1.87;;
58637;SDS011;54976;51.510;7.522;2023-09-19T09:09:20;11.15;;;2.20;;
58637;SDS011;54976;51.510;7.522;2023-09-19T09:12:21;11.07;;;2.50;;
58637;SDS011;54976;51.510;7.522;2023-09-19T09:15:23;15.98;;;1.77;;
58637;SDS011;54976;51.510;7.522;2023-09-19T09:18:24;12.23;;;2.30;;
58637;SDS011;54976;51.510;7.522;2023-09-19T09:21:25;14.50;;;2.50;;
58637;SDS011;54976;51.510;7.522;2023-09-19T09:24:26;12.85;;;2.10;;
58637;SDS011;54976;51.510;7.522;2023-09-19T09:27:33;8.23;;;1.85;;
58637;SDS011;54976;51.510;7.522;2023-09-19T09:30:37;15.65;;;2.60;;
58637;SDS011;54976;51.510;7.522;2023-09-19T09:33:38;18.50;;;2.25;;
58637;SDS011;54976;51.510;7.522;2023-09-19T09:36:39;13.38;;;2.17;;
58637;SDS011;54976;51.510;7.522;2023-09-19T09:39:53;10.32;;;2.17;;
58637;SDS011;54976;51.510;7.522;2023-09-19T09:42:56;12.60;;;2.58;;
58637;SDS011;54976;51.510;7.522;2023-09-19T09:46:07;11.23;;;1.97;;
58637;SDS011;54976;51.510;7.522;2023-09-19T09:49:30;10.57;;;2.65;;
58637;SDS011;54976;51.510;7.522;2023-09-19T09:52:31;14.35;;;2.45;;
58637;SDS011;54976;51.510;7.522;2023-09-19T09:59:06;11.15;;;2.47;;
58637;SDS011;54976;51.510;7.522;2023-09-19T10:02:07;10.98;;;2.10;;
58637;SDS011;54976;51.510;7.522;2023-09-19T10:05:25;9.43;;;2.00;;
58637;SDS011;54976;51.510;7.522;2023-09-19T10:08:29;11.77;;;2.33;;
58637;SDS011;54976;51.510;7.522;2023-09-19T10:11:31;16.02;;;2.63;;
58637;SDS011;54976;51.510;7.522;2023-09-19T10:14:33;11.60;;;2.33;;
58637;SDS011;54976;51.510;7.522;2023-09-19T10:17:35;11.45;;;2.10;;
58637;SDS011;54976;51.510;7.522;2023-09-19T10:20:37;10.77;;;2.13;;
58637;SDS011;54976;51.510;7.522;2023-09-19T10:23:43;11.27;;;2.00;;
58637;SDS011;54976;51.510;7.522;2023-09-19T10:26:45;16.17;;;1.98;;
58637;SDS011;54976;51.510;7.522;2023-09-19T10:29:47;13.35;;;2.20;;
58637;SDS011;54976;51.510;7.522;2023-09-19T10:32:57;14.35;;;2.00;;
58637;SDS011;54976;51.510;7.522;2023-09-19T10:36:00;14.13;;;2.15;;
58637;SDS011;54976;51.510;7.522;2023-09-19T10:39:04;9.88;;;2.28;;
58637;SDS011;54976;51.510;7.522;2023-09-19T10:42:07;13.05;;;2.60;;
58637;SDS011;54976;51.510;7.522;2023-09-19T10:45:15;9.73;;;1.90;;
58637;SDS011;54976;51.510;7.522;2023-09-19T10:48:20;10.77;;;2.42;;
58637;SDS011;54976;51.510;7.522;2023-09-19T10:51:25;8.43;;;2.03;;
58637;SDS011;54976;51.510;7.522;2023-09-19T10:54:41;9.70;;;2.05;;
58637;SDS011;54976;51.510;7.522;2023-09-19T10:57:47;7.43;;;1.95;;
58637;SDS011;54976;51.510;7.522;2023-09-19T11:00:52;7.72;;;1.90;;
58637;SDS011;54976;51.510;7.522;2023-09-19T11:04:20;10.55;;;2.00;;
58637;SDS011;54976;51.510;7.522;2023-09-19T11:07:26;5.30;;;1.90;;
58637;SDS011;54976;51.510;7.522;2023-09-19T11:10:45;10.50;;;2.08;;
58637;SDS011;54976;51.510;7.522;2023-09-19T11:13:48;8.82;;;1.67;;
58637;SDS011;54976;51.510;7.522;2023-09-19T11:20:22;12.65;;;2.20;;
58637;SDS011;54976;51.510;7.522;2023-09-19T11:23:35;12.27;;;2.33;;
58637;SDS011;54976;51.510;7.522;2023-09-19T11:26:41;10.57;;;2.05;;
58637;SDS011;54976;51.510;7.522;2023-09-19T11:29:47;6.55;;;1.80;;
58637;SDS011;54976;51.510;7.522;2023-09-19T11:36:34;6.90;;;1.80;;
58637;SDS011;54976;51.510;7.522;2023-09-19T11:39:36;10.60;;;1.95;;
58637;SDS011;54976;51.510;7.522;2023-09-19T11:42:44;10.82;;;1.80;;
58637;SDS011;54976;51.510;7.522;2023-09-19T11:49:05;13.77;;;2.38;;
58637;SDS011;54976;51.510;7.522;2023-09-19T11:52:18;11.93;;;1.83;;
58637;SDS011;54976;51.510;7.522;2023-09-19T11:55:25;9.75;;;2.00;;
58637;SDS011;54976;51.510;7.522;2023-09-19T11:58:30;9.25;;;3.05;;
58637;SDS011;54976;51.510;7.522;2023-09-19T12:01:33;11.45;;;1.85;;
58637;SDS011;54976;51.510;7.522;2023-09-19T12:07:44;10.30;;;1.80;;
58637;SDS011;54976;51.510;7.522;2023-09-19T12:10:48;8.55;;;1.65;;
58637;SDS011;54976;51.510;7.522;2023-09-19T12:13:51;5.30;;;1.38;;
58637;SDS011;54976;51.510;7.522;2023-09-19T12:16:53;6.00;;;1.42;;
58637;SDS011;54976;51.510;7.522;2023-09-19T12:19:58;6.05;;;1.40;;
58637;SDS011;54976;51.510;7.522;2023-09-19T12:23:00;11.43;;;1.85;;
58637;SDS011;54976;51.510;7.522;2023-09-19T12:26:01;8.10;;;1.70;;
58637;SDS011;54976;51.510;7.522;2023-09-19T12:29:13;10.77;;;1.75;;
58637;SDS011;54976;51.510;7.522;2023-09-19T12:32:33;7.43;;;1.63;;
58637;SDS011;54976;51.510;7.522;2023-09-19T12:35:34;7.60;;;1.50;;
58637;SDS011;54976;51.510;7.522;2023-09-19T12:38:35;11.57;;;1.83;;
58637;SDS011;54976;51.510;7.522;2023-09-19T12:41:37;7.40;;;1.95;;
58637;SDS011;54976;51.510;7.522;2023-09-19T12:44:38;10.30;;;1.80;;
58637;SDS011;54976;51.510;7.522;2023-09-19T12:51:21;7.55;;;1.70;;
58637;SDS011;54976;51.510;7.522;2023-09-19T12:54:24;7.60;;;1.88;;
58637;SDS011;54976;51.510;7.522;2023-09-19T12:57:26;11.40;;;1.85;;
58637;SDS011;54976;51.510;7.522;2023-09-19T13:03:41;8.68;;;1.92;;
58637;SDS011;54976;51.510;7.522;2023-09-19T13:06:42;9.27;;;1.60;;
58637;SDS011;54976;51.510;7.522;2023-09-19T13:10:01;4.28;;;1.52;;
58637;SDS011;54976;51.510;7.522;2023-09-19T13:13:22;5.47;;;1.63;;
58637;SDS011;54976;51.510;7.522;2023-09-19T13:16:27;5.03;;;1.50;;
58637;SDS011;54976;51.510;7.522;2023-09-19T13:22:54;7.38;;;1.67;;
58637;SDS011;54976;51.510;7.522;2023-09-19T13:25:59;4.20;;;1.55;;
58637;SDS011;54976;51.510;7.522;2023-09-19T13:29:00;6.85;;;1.52;;
58637;SDS011;54976;51.510;7.522;2023-09-19T13:32:01;4.35;;;1.65;;
58637;SDS011;54976;51.510;7.522;2023-09-19T13:35:02;6.00;;;1.45;;
58637;SDS011;54976;51.510;7.522;2023-09-19T13:38:05;5.15;;;1.92;;
58637;SDS011;54976;51.510;7.522;2023-09-19T13:41:09;5.43;;;1.17;;
58637;SDS011;54976;51.510;7.522;2023-09-19T13:44:10;5.55;;;1.38;;
58637;SDS011;54976;51.510;7.522;2023-09-19T13:47:11;6.03;;;1.50;;
58637;SDS011;54976;51.510;7.522;2023-09-19T13:50:13;5.28;;;1.48;;
58637;SDS011;54976;51.510;7.522;2023-09-19T13:53:14;7.82;;;1.10;;
58637;SDS011;54976;51.510;7.522;2023-09-19T13:56:16;5.80;;;1.50;;
58637;SDS011;54976;51.510;7.522;2023-09-19T13:59:17;6.05;;;1.30;;
58637;SDS011;54976;51.510;7.522;2023-09-19T14:02:18;8.23;;;1.58;;
58637;SDS011;54976;51.510;7.522;2023-09-19T14:05:18;4.10;;;1.20;;
58637;SDS011;54976;51.510;7.522;2023-09-19T14:08:20;8.45;;;1.23;;
58637;SDS011;54976;51.510;7.522;2023-09-19T14:11:22;9.23;;;1.10;;
58637;SDS011;54976;51.510;7.522;2023-09-19T14:14:22;4.25;;;0.90;;
58637;SDS011;54976;51.510;7.522;2023-09-19T14:17:23;5.78;;;1.23;;
58637;SDS011;54976;51.510;7.522;2023-09-19T14:20:25;4.07;;;1.00;;
58637;SDS011;54976;51.510;7.522;2023-09-19T14:23:26;4.20;;;0.90;;
58637;SDS011;54976;51.510;7.522;2023-09-19T14:26:27;3.70;;;0.88;;
58637;SDS011;54976;51.510;7.522;2023-09-19T14:29:29;7.25;;;0.70;;
58637;SDS011;54976;51.510;7.522;2023-09-19T14:32:30;1.95;;;0.88;;
58637;SDS011;54976;51.510;7.522;2023-09-19T14:35:31;6.82;;;0.85;;
58637;SDS011;54976;51.510;7.522;2023-09-19T14:38:33;2.53;;;0.70;;
58637;SDS011;54976;51.510;7.522;2023-09-19T14:41:34;3.70;;;0.80;;
58637;SDS011;54976;51.510;7.522;2023-09-19T14:44:35;6.63;;;0.95;;
58637;SDS011;54976;51.510;7.522;2023-09-19T14:47:37;1.98;;;0.70;;
58637;SDS011;54976;51.510;7.522;2023-09-19T14:50:38;3.00;;;0.70;;
58637;SDS011;54976;51.510;7.522;2023-09-19T14:53:38;5.10;;;1.33;;
58637;SDS011;54976;51.510;7.522;2023-09-19T14:56:42;3.05;;;0.77;;
58637;SDS011;54976;51.510;7.522;2023-09-19T14:59:43;2.70;;;0.95;;
58637;SDS011;54976;51.510;7.522;2023-09-19T15:02:43;9.30;;;1.10;;
58637;SDS011;54976;51.510;7.522;2023-09-19T15:05:45;3.88;;;0.80;;
58637;SDS011;54976;51.510;7.522;2023-09-19T15:08:46;4.85;;;1.00;;
58637;SDS011;54976;51.510;7.522;2023-09-19T15:11:48;4.13;;;0.90;;
58637;SDS011;54976;51.510;7.522;2023-09-19T15:14:48;4.70;;;0.98;;
58637;SDS011;54976;51.510;7.522;2023-09-19T15:17:49;6.30;;;0.80;;
58637;SDS011;54976;51.510;7.522;2023-09-19T15:20:50;4.63;;;0.73;;
58637;SDS011;54976;51.510;7.522;2023-09-19T15:23:50;5.82;;;0.80;;
58637;SDS011;54976;51.510;7.522;2023-09-19T15:26:51;6.22;;;0.77;;
58637;SDS011;54976;51.510;7.522;2023-09-19T15:29:52;1.73;;;0.57;;
58637;SDS011;54976;51.510;7.522;2023-09-19T15:32:53;2.90;;;0.80;;
58637;SDS011;54976;51.510;7.522;2023-09-19T15:39:04;4.45;;;0.90;;
58637;SDS011;54976;51.510;7.522;2023-09-19T15:42:07;2.90;;;0.80;;
58637;SDS011;54976;51.510;7.522;2023-09-19T15:45:08;7.05;;;1.20;;
58637;SDS011;54976;51.510;7.522;2023-09-19T15:48:10;3.88;;;0.95;;
58637;SDS011;54976;51.510;7.522;2023-09-19T15:51:12;5.50;;;0.60;;
58637;SDS011;54976;51.510;7.522;2023-09-19T15:54:13;7.45;;;1.15;;
58637;SDS011;54976;51.510;7.522;2023-09-19T15:57:14;5.57;;;0.80;;
58637;SDS011;54976;51.510;7.522;2023-09-19T16:00:15;3.53;;;0.85;;
58637;SDS011;54976;51.510;7.522;2023-09-19T16:03:17;5.72;;;0.95;;
58637;SDS011;54976;51.510;7.522;2023-09-19T16:06:19;4.30;;;0.80;;
58637;SDS011;54976;51.510;7.522;2023-09-19T16:09:23;3.95;;;0.88;;
58637;SDS011;54976;51.510;7.522;2023-09-19T16:12:23;3.10;;;0.70;;
58637;SDS011;54976;51.510;7.522;2023-09-19T16:15:24;3.58;;;0.77;;
58637;SDS011;54976;51.510;7.522;2023-09-19T16:18:25;4.53;;;0.82;;
58637;SDS011;54976;51.510;7.522;2023-09-19T16:21:26;3.10;;;0.80;;
58637;SDS011;54976;51.510;7.522;2023-09-19T16:24:27;4.40;;;1.10;;
58637;SDS011;54976;51.510;7.522;2023-09-19T16:27:28;3.83;;;0.95;;
58637;SDS011;54976;51.510;7.522;2023-09-19T16:30:31;6.25;;;0.88;;
58637;SDS011;54976;51.510;7.522;2023-09-19T16:33:34;6.53;;;0.90;;
58637;SDS011;54976;51.510;7.522;2023-09-19T16:36:42;2.30;;;0.98;;
58637;SDS011;54976;51.510;7.522;2023-09-19T16:39:43;6.10;;;0.90;;
58637;SDS011;54976;51.510;7.522;2023-09-19T16:42:43;6.68;;;1.00;;
58637;SDS011;54976;51.510;7.522;2023-09-19T16:45:51;3.35;;;0.98;;
58637;SDS011;54976;51.510;7.522;2023-09-19T16:48:53;2.05;;;0.60;;
58637;SDS011;54976;51.510;7.522;2023-09-19T16:51:54;3.58;;;0.50;;
58637;SDS011;54976;51.510;7.522;2023-09-19T16:54:55;3.70;;;0.50;;
58637;SDS011;54976;51.510;7.522;2023-09-19T16:57:58;3.53;;;0.80;;
58637;SDS011;54976;51.510;7.522;2023-09-19T17:00:59;3.35;;;0.80;;
58637;SDS011;54976;51.510;7.522;2023-09-19T17:04:00;2.10;;;0.50;;
58637;SDS011;54976;51.510;7.522;2023-09-19T17:07:02;3.67;;;0.68;;
58637;SDS011;54976;51.510;7.522;2023-09-19T17:10:03;2.38;;;0.80;;
58637;SDS011;54976;51.510;7.522;2023-09-19T17:13:05;11.07;;;0.80;;
58637;SDS011;54976;51.510;7.522;2023-09-19T17:16:07;4.30;;;1.05;;
58637;SDS011;54976;51.510;7.522;2023-09-19T17:19:09;3.47;;;0.60;;
58637;SDS011;54976;51.510;7.522;2023-09-19T17:22:12;4.53;;;1.05;;
58637;SDS011;54976;51.510;7.522;2023-09-19T17:25:12;4.90;;;0.93;;
58637;SDS011;54976;51.510;7.522;2023-09-19T17:28:13;9.60;;;0.90;;
58637;SDS011;54976;51.510;7.522;2023-09-19T17:31:18;4.50;;;0.80;;
58637;SDS011;54976;51.510;7.522;2023-09-19T17:34:21;4.53;;;0.70;;
58637;SDS011;54976;51.510;7.522;2023-09-19T17:37:22;4.00;;;0.80;;
58637;SDS011;54976;51.510;7.522;2023-09-19T17:40:23;7.60;;;1.52;;
58637;SDS011;54976;51.510;7.522;2023-09-19T17:43:24;1.80;;;0.50;;
58637;SDS011;54976;51.510;7.522;2023-09-19T17:46:24;3.83;;;0.90;;
58637;SDS011;54976;51.510;7.522;2023-09-19T17:49:27;4.85;;;0.90;;
58637;SDS011;54976;51.510;7.522;2023-09-19T17:52:27;6.97;;;0.90;;
58637;SDS011;54976;51.510;7.522;2023-09-19T17:55:28;4.68;;;0.80;;
58637;SDS011;54976;51.510;7.522;2023-09-19T17:58:29;3.83;;;0.85;;
58637;SDS011;54976;51.510;7.522;2023-09-19T18:01:30;6.35;;;0.95;;
58637;SDS011;54976;51.510;7.522;2023-09-19T18:04:32;11.65;;;1.00;;
58637;SDS011;54976;51.510;7.522;2023-09-19T18:07:33;5.70;;;1.00;;
58637;SDS011;54976;51.510;7.522;2023-09-19T18:10:36;4.68;;;1.10;;
58637;SDS011;54976;51.510;7.522;2023-09-19T18:13:38;6.10;;;0.90;;
58637;SDS011;54976;51.510;7.522;2023-09-19T18:16:38;3.72;;;0.77;;
58637;SDS011;54976;51.510;7.522;2023-09-19T18:19:40;3.42;;;0.90;;
58637;SDS011;54976;51.510;7.522;2023-09-19T18:22:40;4.22;;;1.15;;
58637;SDS011;54976;51.510;7.522;2023-09-19T18:25:41;4.65;;;0.93;;
58637;SDS011;54976;51.510;7.522;2023-09-19T18:28:41;3.85;;;0.88;;
58637;SDS011;54976;51.510;7.522;2023-09-19T18:31:43;3.92;;;1.00;;
58637;SDS011;54976;51.510;7.522;2023-09-19T18:34:45;7.05;;;1.02;;
58637;SDS011;54976;51.510;7.522;2023-09-19T18:37:45;3.35;;;0.98;;
58637;SDS011;54976;51.510;7.522;2023-09-19T18:40:46;3.10;;;0.80;;
58637;SDS011;54976;51.510;7.522;2023-09-19T18:43:47;3.25;;;0.90;;
58637;SDS011;54976;51.510;7.522;2023-09-19T18:46:48;2.42;;;0.90;;
58637;SDS011;54976;51.510;7.522;2023-09-19T18:49:48;7.75;;;1.42;;
58637;SDS011;54976;51.510;7.522;2023-09-19T18:52:49;7.30;;;0.93;;
58637;SDS011;54976;51.510;7.522;2023-09-19T18:56:01;7.05;;;1.20;;
58637;SDS011;54976;51.510;7.522;2023-09-19T18:59:12;2.60;;;0.80;;